Time;durP1;ratioP1;P1;durP2;ratioP2;P2;SDS_P1;SDS_P2;PMS_P1;PMS_P2;Temp;Humidity;BMP_temperature;BMP_pressure;BME280_temperature;BME280_humidity;BME280_pressure;Samples;Min_cycle;Max_cycle;Signal;HPM_P1;HPM_P2
2022/08/22 00:00:19;;;;;;;1.52;0.57;;;;;;;;;;20983874;28;20267;-74
2022/08/22 00:10:33;;;;;;;2.05;0.60;;;24.20;90.40;;;;;;20984369;28;20219;-74
2022/08/22 00:20:56;;;;;;;0.63;0.40;;;24.20;79.10;;;;;;20920510;28;20215;-74
2022/08/22 00:31:01;;;;;;;1.35;0.57;;;;;;;;;;20990970;28;20210;-74
2022/08/22 00:41:06;;;;;;;1.23;0.40;;;;;;;;;;20997609;28;20267;-74
2022/08/22 00:51:08;;;;;;;1.17;0.50;;;;;;;;;;20986849;28;20210;-74
2022/08/22 01:01:12;;;;;;;1.10;0.40;;;23.80;90.70;;;;;;20997308;28;20720;-74
2022/08/22 01:11:17;;;;;;;0.80;0.45;;;;;;;;;;20981259;28;20220;-74
2022/08/22 01:21:49;;;;;;;0.73;0.47;;;23.80;79.50;;;;;;20996811;28;20200;-74
2022/08/22 01:32:10;;;;;;;1.67;0.50;;;23.80;80.10;;;;;;20993799;28;20750;-74
2022/08/22 01:42:24;;;;;;;0.43;0.25;;;;;;;;;;20976978;28;20568;-74
2022/08/22 01:52:44;;;;;;;0.75;0.40;;;;;;;;;;20976005;28;20237;-74
2022/08/22 02:02:52;;;;;;;0.75;0.40;;;;;;;;;;20994220;28;20205;-74
2022/08/22 02:12:57;;;;;;;0.65;0.45;;;;;;;;;;20991729;28;20218;-74
2022/08/22 02:23:04;;;;;;;0.85;0.50;;;;;;;;;;20992031;28;20205;-74
2022/08/22 02:33:13;;;;;;;2.53;0.40;;;23.40;92.60;;;;;;20990835;28;20220;-74
2022/08/22 02:43:22;;;;;;;1.10;0.40;;;;;;;;;;20972667;28;20360;-74
2022/08/22 02:53:49;;;;;;;0.98;0.50;;;23.20;93.00;;;;;;20988490;28;20231;-74
2022/08/22 03:04:11;;;;;;;1.17;0.40;;;23.10;93.50;;;;;;20969050;28;20275;-73
2022/08/22 03:14:45;;;;;;;0.60;0.40;;;23.00;93.90;;;;;;20953853;28;20221;-74
2022/08/22 03:25:06;;;;;;;0.70;0.50;;;;;;;;;;20986686;28;20233;-74
2022/08/22 03:35:10;;;;;;;1.30;0.50;;;23.00;94.20;;;;;;20940923;28;20559;-74
2022/08/22 03:45:37;;;;;;;2.20;0.77;;;22.90;89.80;;;;;;20955540;28;20239;-74
2022/08/22 03:55:39;;;;;;;2.38;0.60;;;;;;;;;;20983551;28;20218;-74
2022/08/22 04:05:59;;;;;;;1.88;0.73;;;;;;;;;;20966835;28;20260;-74
2022/08/22 04:16:32;;;;;;;1.25;0.70;;;22.70;84.30;;;;;;20985360;28;20229;-74
2022/08/22 04:26:57;;;;;;;2.13;0.90;;;22.60;84.70;;;;;;20984934;28;20577;-74
2022/08/22 04:37:15;;;;;;;2.00;0.77;;;22.50;96.00;;;;;;20948842;28;20226;-74
2022/08/22 04:47:24;;;;;;;1.55;0.63;;;22.50;96.30;;;;;;20982187;28;20199;-74
2022/08/22 04:57:59;;;;;;;2.35;0.68;;;22.60;96.60;;;;;;20982432;28;20745;-74
2022/08/22 05:08:04;;;;;;;0.68;0.40;;;;;;;;;;20986948;28;20250;-74
2022/08/22 05:18:08;;;;;;;0.85;0.50;;;;;;;;;;20887786;28;20203;-75
2022/08/22 05:28:22;;;;;;;2.85;0.73;;;22.60;96.90;;;;;;20905025;28;20248;-73
2022/08/22 05:38:30;;;;;;;2.40;0.60;;;22.60;93.90;;;;;;20912343;28;20217;-73
2022/08/22 05:48:37;;;;;;;5.15;0.77;;;;;;;;;;20935728;28;20277;-73
2022/08/22 05:58:40;;;;;;;1.52;0.70;;;;;;;;;;20928504;28;20270;-73
2022/08/22 06:08:43;;;;;;;3.95;0.95;;;;;;;;;;20971039;28;20635;-72
2022/08/22 06:18:45;;;;;;;1.30;0.68;;;22.80;89.20;;;;;;20933570;28;20276;-76
2022/08/22 06:28:51;;;;;;;1.15;0.60;;;22.80;96.80;;;;;;20895844;28;20217;-73
2022/08/22 06:39:04;;;;;;;1.27;0.60;;;23.00;96.20;;;;;;20895517;28;20217;-77
2022/08/22 06:49:08;;;;;;;1.00;0.50;;;;;;;;;;20946104;28;20242;-77
2022/08/22 06:59:14;;;;;;;2.45;0.50;;;;;;;;;;20931617;28;20216;-75
2022/08/22 07:09:37;;;;;;;2.58;0.70;;;23.10;95.90;;;;;;20982654;28;20268;-76
2022/08/22 07:19:45;;;;;;;1.77;0.73;;;23.30;95.00;;;;;;20969805;28;20204;-76
2022/08/22 07:29:52;;;;;;;1.00;0.60;;;;;;;;;;20986239;28;20279;-76
2022/08/22 07:40:02;;;;;;;1.20;0.57;;;23.90;93.40;;;;;;20986704;28;20345;-76
2022/08/22 07:50:07;;;;;;;2.28;0.70;;;23.70;93.50;;;;;;20968681;28;20264;-76
2022/08/22 08:00:14;;;;;;;1.17;0.68;;;;;;;;;;20986619;28;20246;-76
2022/08/22 08:10:20;;;;;;;2.90;0.85;;;23.70;94.90;;;;;;20967941;28;20283;-76
2022/08/22 08:20:23;;;;;;;3.38;0.80;;;;;;;;;;20984140;28;20215;-76
2022/08/22 08:30:26;;;;;;;2.55;1.00;;;;;;;;;;20984240;28;20934;-76
2022/08/22 08:40:30;;;;;;;1.50;0.82;;;24.20;84.60;;;;;;20993262;28;20263;-76
2022/08/22 08:50:35;;;;;;;1.92;0.70;;;;;;;;;;20982639;28;20237;-76
2022/08/22 09:00:43;;;;;;;0.82;0.70;;;;;;;;;;20998988;28;20207;-76
2022/08/22 09:11:04;;;;;;;1.95;0.70;;;;;;;;;;21050148;22;20234;-74
2022/08/22 09:21:21;;;;;;;1.20;0.70;;;;;;;;;;21063851;28;20649;-73
2022/08/22 09:31:27;;;;;;;2.22;0.90;;;;;;;;;;21063406;28;20230;-74
2022/08/22 09:41:40;;;;;;;1.88;0.80;;;26.00;85.10;;;;;;21045745;28;20219;-74
2022/08/22 09:51:58;;;;;;;1.85;0.98;;;;;;;;;;21029176;28;20725;-73
2022/08/22 10:02:12;;;;;;;2.50;1.10;;;;;;;;;;21027946;28;20602;-73
2022/08/22 10:12:18;;;;;;;2.25;0.90;;;;;;;;;;21059203;28;20227;-73
2022/08/22 10:22:28;;;;;;;2.88;0.70;;;26.80;86.50;;;;;;21026118;28;20213;-73
2022/08/22 10:32:45;;;;;;;1.15;0.68;;;27.10;84.30;;;;;;21025307;28;20220;-73
2022/08/22 10:42:52;;;;;;;2.08;0.70;;;;;;;;;;21027081;28;20207;-74
2022/08/22 10:53:28;;;;;;;2.10;0.70;;;;;;;;;;21040925;28;20988;-74
2022/08/22 11:03:38;;;;;;;1.52;0.80;;;;;;;;;;21056314;28;20226;-74
2022/08/22 11:13:49;;;;;;;1.02;0.52;;;;;;;;;;21056142;28;20236;-74
2022/08/22 11:23:51;;;;;;;1.95;0.90;;;;;;;;;;21071268;28;20219;-74
2022/08/22 11:34:11;;;;;;;1.63;0.73;;;;;;;;;;21036884;28;20226;-74
2022/08/22 11:44:23;;;;;;;1.52;0.75;;;;;;;;;;21036122;28;20232;-74
2022/08/22 11:54:25;;;;;;;1.65;0.80;;;;;;;;;;21035397;28;20245;-75
2022/08/22 12:04:51;;;;;;;1.40;0.77;;;28.70;72.20;;;;;;21035293;28;20219;-75
2022/08/22 12:14:53;;;;;;;0.75;0.40;;;;;;;;;;21050546;28;20660;-75
2022/08/22 12:25:01;;;;;;;2.50;0.70;;;;;;;;;;21034090;28;20628;-75
2022/08/22 12:35:16;;;;;;;1.50;0.68;;;;;;;;;;21050718;28;20219;-76
2022/08/22 12:45:26;;;;;;;1.77;0.73;;;29.70;58.80;;;;;;21033372;28;20583;-75
2022/08/22 12:55:56;;;;;;;1.48;0.60;;;29.80;72.60;;;;;;21033075;28;20220;-74
2022/08/22 13:06:04;;;;;;;2.75;1.10;;;;;;;;;;21043703;28;20627;-76
2022/08/22 13:16:11;;;;;;;1.70;0.85;;;;;;;;;;21025349;28;20219;-75
2022/08/22 13:26:30;;;;;;;1.00;0.60;;;30.10;70.60;;;;;;21040075;28;20220;-75
2022/08/22 13:36:39;;;;;;;1.13;0.68;;;;;;;;;;21040756;28;20219;-75
2022/08/22 13:46:42;;;;;;;1.17;0.70;;;;;;;;;;21025406;28;20264;-74
2022/08/22 13:57:16;;;;;;;1.10;0.63;;;30.40;70.70;;;;;;21062643;28;20778;-75
2022/08/22 14:07:23;;;;;;;1.48;0.70;;;;;;;;;;21112806;28;20623;-75
2022/08/22 14:17:31;;;;;;;1.40;0.60;;;;;;;;;;21155018;28;20228;-75
2022/08/22 14:28:04;;;;;;;1.30;0.60;;;30.50;63.40;;;;;;21071789;28;20212;-76
2022/08/22 14:38:24;;;;;;;1.40;0.60;;;;;;;;;;21129864;28;20835;-76
2022/08/22 14:48:29;;;;;;;0.93;0.50;;;;;;;;;;21116531;28;20220;-75
2022/08/22 14:58:46;;;;;;;1.38;0.65;;;;;;;;;;21116800;28;20933;-76
2022/08/22 15:08:49;;;;;;;1.50;0.68;;;;;;;;;;21074110;28;20274;-76
2022/08/22 15:18:51;;;;;;;3.05;0.68;;;;;;;;;;21049525;28;20209;-76
2022/08/22 15:28:56;;;;;;;3.72;0.70;;;;;;;;;;20997385;28;20219;-77
2022/08/22 15:39:17;;;;;;;1.08;0.57;;;;;;;;;;21014516;28;20205;-75
2022/08/22 15:49:19;;;;;;;2.63;0.40;;;;;;;;;;21006156;22;20466;-76
2022/08/22 15:59:33;;;;;;;1.60;0.68;;;;;;;;;;21037826;28;20213;-76
2022/08/22 16:09:37;;;;;;;1.55;0.60;;;;;;;;;;21042997;28;20228;-76
2022/08/22 16:19:39;;;;;;;1.13;0.47;;;;;;;;;;21006213;28;20233;-76
2022/08/22 16:29:41;;;;;;;2.83;0.60;;;;;;;;;;21101045;28;20216;-76
2022/08/22 16:39:43;;;;;;;0.90;0.55;;;;;;;;;;21056303;28;20289;-76
2022/08/22 16:49:51;;;;;;;0.70;0.50;;;;;;;;;;21070090;28;20588;-76
2022/08/22 16:59:56;;;;;;;1.15;0.55;;;;;;;;;;21095528;28;20271;-75
2022/08/22 17:10:22;;;;;;;0.93;0.40;;;;;;;;;;21111181;28;20243;-75
2022/08/22 17:20:33;;;;;;;2.40;0.50;;;;;;;;;;21103158;28;20280;-76
2022/08/22 17:30:45;;;;;;;2.83;0.60;;;29.10;70.60;;;;;;21120753;28;20223;-76
2022/08/22 17:41:17;;;;;;;1.40;0.57;;;28.80;56.60;;;;;;21093709;28;20301;-76
2022/08/22 17:51:30;;;;;;;0.93;0.60;;;;;;;;;;21056988;28;20718;-76
2022/08/22 18:01:50;;;;;;;1.25;0.57;;;28.70;67.80;;;;;;21028663;28;20234;-76
2022/08/22 18:12:00;;;;;;;0.90;0.50;;;28.70;71.50;;;;;;21078603;28;20268;-76
2022/08/22 18:22:18;;;;;;;7.65;1.40;;;28.30;67.00;;;;;;21066186;28;20252;-76
2022/08/22 18:32:19;;;;;;;1.20;0.70;;;;;;;;;;21044969;28;20293;-76
2022/08/22 18:42:30;;;;;;;3.05;0.80;;;;;;;;;;20979238;28;20259;-76
2022/08/22 18:52:35;;;;;;;1.60;0.60;;;28.00;73.40;;;;;;21067361;28;20225;-76
2022/08/22 19:02:46;;;;;;;1.13;0.70;;;27.80;61.50;;;;;;21126250;28;20200;-76
2022/08/22 19:12:48;;;;;;;1.63;0.93;;;;;;;;;;21082527;28;20256;-76
2022/08/22 19:22:53;;;;;;;2.05;0.90;;;;;;;;;;21066054;28;20214;-76
2022/08/22 19:32:58;;;;;;;1.50;0.90;;;27.80;75.20;;;;;;21066297;28;20261;-76
2022/08/22 19:43:01;;;;;;;2.35;0.68;;;;;;;;;;21068425;28;20271;-76
2022/08/22 19:53:23;;;;;;;2.03;0.80;;;;;;;;;;21070588;28;20245;-76
2022/08/22 20:04:02;;;;;;;2.15;0.73;;;27.30;65.20;;;;;;20981714;28;20249;-76
2022/08/22 20:14:26;;;;;;;2.97;0.95;;;27.10;77.80;;;;;;20981077;28;20220;-76
2022/08/22 20:24:36;;;;;;;2.85;0.90;;;;;;;;;;20978920;28;20300;-76
2022/08/22 20:34:38;;;;;;;1.55;0.65;;;;;;;;;;21112271;28;20225;-77
2022/08/22 20:44:49;;;;;;;1.45;0.75;;;26.60;72.60;;;;;;21133258;28;20215;-77
2022/08/22 20:55:15;;;;;;;4.72;0.90;;;26.70;67.30;;;;;;21163641;28;20228;-76
2022/08/22 21:05:22;;;;;;;1.23;0.80;;;26.40;80.00;;;;;;21163450;28;20761;-76
2022/08/22 21:15:31;;;;;;;1.67;0.90;;;;;;;;;;21141659;28;20773;-77
2022/08/22 21:25:46;;;;;;;2.97;0.88;;;;;;;;;;21154275;28;20256;-77
2022/08/22 21:35:54;;;;;;;1.77;0.80;;;26.30;80.80;;;;;;21143122;28;20209;-76
2022/08/22 21:45:56;;;;;;;3.25;0.75;;;;;;;;;;21157556;22;20557;-76
2022/08/22 21:56:11;;;;;;;2.95;0.90;;;;;;;;;;21078750;28;20226;-76
2022/08/22 22:06:13;;;;;;;1.73;0.73;;;;;;;;;;21153237;28;20271;-76
2022/08/22 22:16:19;;;;;;;1.50;1.10;;;;;;;;;;21139203;28;20238;-76
2022/08/22 22:26:21;;;;;;;2.35;0.80;;;;;;;;;;21163630;28;20205;-76
2022/08/22 22:36:25;;;;;;;1.80;1.05;;;25.90;83.00;;;;;;21161583;28;20237;-76
2022/08/22 22:46:27;;;;;;;2.22;1.10;;;25.70;83.40;;;;;;21158263;28;20267;-76
2022/08/22 22:56:29;;;;;;;2.80;0.93;;;;;;;;;;21129950;28;20288;-76
2022/08/22 23:06:31;;;;;;;2.70;1.20;;;;;;;;;;21156553;28;20204;-76
2022/08/22 23:16:33;;;;;;;3.70;1.80;;;;;;;;;;21087584;28;20212;-76
2022/08/22 23:26:35;;;;;;;5.15;2.10;;;;;;;;;;20986741;28;20202;-76
2022/08/22 23:36:37;;;;;;;5.57;1.92;;;;;;;;;;20986302;28;20258;-76
2022/08/22 23:46:38;;;;;;;3.75;1.73;;;;;;;;;;20966782;28;20224;-76
2022/08/22 23:56:53;;;;;;;3.63;1.60;;;24.60;87.10;;;;;;20983523;28;20271;-76
